Hyundai Forward — 3EJY9 — position and weather

sailwx.info

Track history (hours):
 
Tides and Currents Weather Stations Pressure Air Temp Water Temp Dewpoint Dewpoint Depression Visibility Wind Speed Wind Dir Waves Ship Positions

Hyundai Forward

Last reported at 2014-Jul-09 07:07 UTC. Time now 2014-Jul-23 15:34 UTC.
Position N 35°02' W 128°08'.
Warning: this ship's position is 14 days out of date.

Length 294 m; draft 11.2 m.

Type: Ship (hazmat cat A). MMSI: 372652000.

Date/timePositionNaut miles runAvg speedWind from/ knotsBaromVisibWave heightAir tempDewpointWater temp
2014-Jul-09 07:07N 35°02' W 128°08'2816.8
2014-Jul-09 05:28N 34°44' W 127°42'1616.9
2014-Jul-09 04:32N 34°34' W 127°28'1816.3
2014-Jul-09 03:26N 34°22' W 127°11'1516.4
2014-Jul-09 02:33N 34°13' W 126°58'7116.6
2014-Jul-08 22:16N 33°27' W 125°52'2016.9
2014-Jul-08 21:06N 33°14' W 125°34'1716.8
2014-Jul-08 20:06N 33°03' W 125°19'4316.7
2014-Jul-08 17:30N 32°34' W 124°41'2316.9
2014-Jul-08 16:09N 32°18' W 124°21'3017.1
2014-Jul-08 14:24N 31°59' W 123°55'2117.0
2014-Jul-08 13:10N 31°45' W 123°36'1416.8
2014-Jul-08 12:19N 31°36' W 123°23'1816.7
2014-Jul-08 11:16N 31°24' W 123°08'1216.9
2014-Jul-08 10:33N 31°16' W 122°58'1717.1
2014-Jul-08 09:33N 31°04' W 122°43'1716.9
2014-Jul-08 08:33N 30°52' W 122°29'1716.7
2014-Jul-08 07:33N 30°41' W 122°14'1716.7
2014-Jul-08 06:33N 30°30' W 121°60'1716.6
2014-Jul-08 05:33N 30°20' W 121°45'1716.6
2014-Jul-08 04:33N 30°09' W 121°30'1716.7
2014-Jul-08 03:33N 29°59' W 121°14'1716.7
2014-Jul-08 02:33N 29°49' W 120°59'1716.6
2014-Jul-08 01:33N 29°38' W 120°44'1716.7
2014-Jul-08 00:33N 29°28' W 120°29'1716.7
2014-Jul-07 23:33N 29°18' W 120°14'1816.9
2014-Jul-07 22:31N 29°07' W 119°58'  
Track history (hours):
 
Tides and Currents Weather Stations Pressure Air Temp Water Temp Dewpoint Dewpoint Depression Visibility Wind Speed Wind Dir Waves Ship Positions

Hyundai Forward

Last reported at 2014-Jul-09 07:07 UTC. Time now 2014-Jul-23 15:34 UTC.
Position N 35°02' W 128°08'.
Warning: this ship's position is 14 days out of date.

Length 294 m; draft 11.2 m.

Type: Ship (hazmat cat A). MMSI: 372652000.

Date/timePositionNaut miles runAvg speedWind from/ knotsBaromVisibWave heightAir tempDewpointWater temp
2014-Jul-09 07:07N 35°02' W 128°08'2816.8
2014-Jul-09 05:28N 34°44' W 127°42'1616.9
2014-Jul-09 04:32N 34°34' W 127°28'1816.3
2014-Jul-09 03:26N 34°22' W 127°11'1516.4
2014-Jul-09 02:33N 34°13' W 126°58'7116.6
2014-Jul-08 22:16N 33°27' W 125°52'2016.9
2014-Jul-08 21:06N 33°14' W 125°34'1716.8
2014-Jul-08 20:06N 33°03' W 125°19'4316.7
2014-Jul-08 17:30N 32°34' W 124°41'2316.9
2014-Jul-08 16:09N 32°18' W 124°21'3017.1
2014-Jul-08 14:24N 31°59' W 123°55'2117.0
2014-Jul-08 13:10N 31°45' W 123°36'1416.8
2014-Jul-08 12:19N 31°36' W 123°23'1816.7
2014-Jul-08 11:16N 31°24' W 123°08'1216.9
2014-Jul-08 10:33N 31°16' W 122°58'1717.1
2014-Jul-08 09:33N 31°04' W 122°43'1716.9
2014-Jul-08 08:33N 30°52' W 122°29'1716.7
2014-Jul-08 07:33N 30°41' W 122°14'1716.7
2014-Jul-08 06:33N 30°30' W 121°60'1716.6
2014-Jul-08 05:33N 30°20' W 121°45'1716.6
2014-Jul-08 04:33N 30°09' W 121°30'1716.7
2014-Jul-08 03:33N 29°59' W 121°14'1716.7
2014-Jul-08 02:33N 29°49' W 120°59'1716.6
2014-Jul-08 01:33N 29°38' W 120°44'1716.7
2014-Jul-08 00:33N 29°28' W 120°29'1716.7
2014-Jul-07 23:33N 29°18' W 120°14'1816.9
2014-Jul-07 22:31N 29°07' W 119°58'  

Dump ship's entire track history